Time;durP1;ratioP1;P1;durP2;ratioP2;P2;SDS_P1;SDS_P2;PMS_P1;PMS_P2;Temp;Humidity;BMP_temperature;BMP_pressure;BME280_temperature;BME280_humidity;BME280_pressure;Samples;Min_cycle;Max_cycle;Signal;HPM_P1;HPM_P2
2022/11/15 00:01:40;;;;;;;12.13;6.07;;;9.40;99.90;;;;;;5038146;28;20144;-65
2022/11/15 00:04:06;;;;;;;12.88;6.28;;;9.50;99.90;;;;;;5027347;28;20485;-65
2022/11/15 00:06:32;;;;;;;15.93;7.00;;;9.50;99.90;;;;;;5028813;28;20031;-65
2022/11/15 00:08:58;;;;;;;12.25;6.63;;;9.50;99.90;;;;;;5034267;28;20014;-65
2022/11/15 00:11:24;;;;;;;11.85;6.15;;;9.60;99.90;;;;;;5027822;28;20104;-64
2022/11/15 00:13:50;;;;;;;11.52;6.38;;;9.60;99.90;;;;;;5022214;28;20132;-65
2022/11/15 00:16:16;;;;;;;13.73;7.35;;;9.70;99.90;;;;;;5025240;28;20029;-65
2022/11/15 00:18:41;;;;;;;13.98;6.38;;;9.70;99.90;;;;;;5041163;28;20056;-65
2022/11/15 00:21:10;;;;;;;14.15;7.03;;;9.70;99.90;;;;;;5029300;28;20439;-66
2022/11/15 00:23:37;;;;;;;11.82;6.53;;;9.70;99.90;;;;;;5026165;28;20041;-67
2022/11/15 00:26:03;;;;;;;14.20;7.25;;;9.80;99.90;;;;;;5029899;28;20071;-65
2022/11/15 00:28:29;;;;;;;18.92;7.20;;;9.80;99.90;;;;;;5023168;28;20025;-64
2022/11/15 00:31:00;;;;;;;14.35;6.32;;;9.80;99.90;;;;;;5027253;28;20029;-64
2022/11/15 00:33:26;;;;;;;12.38;7.05;;;9.80;99.90;;;;;;5027316;28;20030;-65
2022/11/15 00:35:51;;;;;;;11.45;6.93;;;9.90;99.90;;;;;;5025890;28;20026;-65
2022/11/15 00:38:17;;;;;;;9.93;6.53;;;9.90;99.90;;;;;;5026621;28;20025;-65
2022/11/15 00:40:43;;;;;;;12.23;6.85;;;9.90;99.90;;;;;;5025010;28;20064;-65
2022/11/15 00:43:08;;;;;;;10.98;6.35;;;9.90;99.90;;;;;;5018716;28;20038;-64
2022/11/15 00:45:34;;;;;;;12.85;7.13;;;9.90;99.90;;;;;;5027507;28;20021;-64
2022/11/15 00:47:59;;;;;;;17.90;7.03;;;10.00;99.90;;;;;;5019450;28;20100;-65
2022/11/15 00:50:25;;;;;;;14.57;7.05;;;10.00;99.90;;;;;;5024796;28;20037;-65
2022/11/15 00:52:50;;;;;;;14.85;6.72;;;10.00;99.90;;;;;;5014706;28;20037;-64
2022/11/15 00:55:17;;;;;;;15.32;7.00;;;10.00;99.90;;;;;;5016364;28;20033;-64
2022/11/15 00:57:44;;;;;;;18.33;7.90;;;10.00;99.90;;;;;;5029922;28;20100;-66
2022/11/15 01:00:10;;;;;;;13.27;7.38;;;10.00;99.90;;;;;;5016989;28;20030;-65
2022/11/15 01:02:35;;;;;;;15.82;7.00;;;10.10;99.90;;;;;;5014355;28;20802;-66
2022/11/15 01:05:01;;;;;;;13.57;7.00;;;10.10;99.90;;;;;;5026480;28;20112;-65
2022/11/15 01:07:27;;;;;;;13.57;6.75;;;10.10;99.90;;;;;;5035254;28;20032;-64
2022/11/15 01:09:52;;;;;;;11.95;7.35;;;10.10;99.90;;;;;;5025005;28;20033;-65
2022/11/15 01:12:19;;;;;;;13.02;7.32;;;10.00;99.90;;;;;;5028997;28;20108;-65
2022/11/15 01:14:44;;;;;;;15.07;8.02;;;10.10;99.90;;;;;;5028732;28;20021;-66
2022/11/15 01:17:10;;;;;;;10.95;6.53;;;10.10;99.90;;;;;;5019391;28;20946;-65
2022/11/15 01:19:35;;;;;;;12.85;7.25;;;10.10;99.90;;;;;;5023826;28;20029;-64
2022/11/15 01:22:01;;;;;;;11.43;7.10;;;10.10;99.90;;;;;;5027397;28;20037;-65
2022/11/15 01:24:26;;;;;;;13.93;7.15;;;10.10;99.90;;;;;;5021646;28;20037;-64
2022/11/15 01:26:52;;;;;;;12.05;7.03;;;10.20;99.90;;;;;;5021599;28;20059;-64
2022/11/15 01:29:18;;;;;;;11.48;7.47;;;10.20;99.90;;;;;;5041224;28;20099;-65
2022/11/15 01:31:43;;;;;;;12.65;7.30;;;10.20;99.90;;;;;;5021005;28;20021;-64
2022/11/15 01:34:09;;;;;;;10.18;6.22;;;10.30;99.90;;;;;;5018699;28;20041;-65
2022/11/15 01:36:34;;;;;;;13.35;7.90;;;10.30;99.90;;;;;;5035882;28;20021;-64
2022/11/15 01:39:00;;;;;;;13.02;6.97;;;10.40;99.90;;;;;;5029275;28;20013;-65
2022/11/15 01:41:29;;;;;;;14.45;7.47;;;10.40;99.90;;;;;;5019681;28;20093;-65
2022/11/15 01:43:57;;;;;;;11.98;6.63;;;10.30;99.90;;;;;;5035192;28;20048;-65
2022/11/15 01:46:22;;;;;;;13.30;6.88;;;10.40;99.90;;;;;;5028150;28;20029;-65
2022/11/15 01:48:51;;;;;;;14.95;6.60;;;10.30;99.90;;;;;;5031997;28;20501;-65
2022/11/15 01:51:19;;;;;;;11.60;6.78;;;10.40;99.90;;;;;;5030426;28;20022;-65
2022/11/15 01:53:48;;;;;;;12.90;7.15;;;10.40;99.90;;;;;;5031146;28;20024;-64
2022/11/15 01:56:18;;;;;;;14.18;7.03;;;10.40;99.90;;;;;;5024638;28;20041;-64
2022/11/15 01:58:45;;;;;;;17.10;6.47;;;10.50;99.90;;;;;;5027604;28;20029;-66
2022/11/15 02:01:12;;;;;;;12.50;7.57;;;10.50;99.90;;;;;;5023393;28;20060;-64
2022/11/15 02:04:12;;;;;;;10.40;6.45;;;10.50;99.90;;;;;;5020241;28;20034;-64
2022/11/15 02:06:39;;;;;;;13.18;6.43;;;10.60;99.90;;;;;;5011199;28;20573;-65
2022/11/15 02:09:05;;;;;;;11.30;6.72;;;10.60;99.90;;;;;;5030591;28;20033;-64
2022/11/15 02:11:31;;;;;;;13.57;7.35;;;10.60;99.90;;;;;;5017987;28;20088;-64
2022/11/15 02:13:59;;;;;;;11.77;7.07;;;10.60;99.90;;;;;;5030168;28;20029;-65
2022/11/15 02:16:48;;;;;;;9.85;6.55;;;10.60;99.90;;;;;;5033552;28;20088;-65
2022/11/15 02:19:32;;;;;;;10.30;5.90;;;10.60;99.90;;;;;;5029238;28;20030;-65
2022/11/15 02:22:35;;;;;;;9.07;5.95;;;10.60;99.90;;;;;;5021866;28;20115;-65
2022/11/15 02:25:28;;;;;;;11.70;5.60;;;10.60;99.90;;;;;;5022192;28;20030;-65
2022/11/15 02:28:08;;;;;;;19.65;6.85;;;10.70;99.90;;;;;;5021909;28;20369;-65
2022/11/15 02:31:02;;;;;;;15.00;7.10;;;10.70;99.90;;;;;;5017172;28;20026;-65
2022/11/15 02:33:41;;;;;;;11.57;6.22;;;10.70;99.90;;;;;;5020801;28;20769;-65
2022/11/15 02:36:13;;;;;;;9.85;6.28;;;10.70;99.90;;;;;;5010101;28;20049;-65
2022/11/15 02:39:07;;;;;;;13.88;6.13;;;10.70;99.90;;;;;;5022667;28;20418;-65
2022/11/15 02:45:03;;;;;;;12.95;6.53;;;10.70;99.90;;;;;;5017174;28;20080;-65
2022/11/15 02:47:34;;;;;;;10.07;5.68;;;10.70;99.90;;;;;;5018653;28;20958;-64
2022/11/15 02:50:07;;;;;;;11.23;6.38;;;10.80;99.90;;;;;;5016488;28;20388;-65
2022/11/15 02:52:33;;;;;;;;;;;10.80;99.90;;;;;;5027233;28;20025;-64
2022/11/15 02:55:01;;;;;;;9.13;5.80;;;10.80;99.90;;;;;;5025165;28;20040;-65
2022/11/15 02:57:39;;;;;;;12.93;5.70;;;10.80;99.90;;;;;;5014263;28;20025;-66
2022/11/15 03:00:10;;;;;;;9.57;5.35;;;10.80;99.90;;;;;;5014961;28;20100;-64
2022/11/15 03:02:42;;;;;;;7.75;4.95;;;10.80;99.90;;;;;;5017051;28;20382;-65
2022/11/15 03:05:16;;;;;;;9.85;5.95;;;10.80;99.90;;;;;;5020221;28;20025;-65
2022/11/15 03:07:47;;;;;;;9.35;5.60;;;10.80;99.90;;;;;;5017653;28;20021;-65
2022/11/15 03:10:39;;;;;;;10.15;5.82;;;10.80;99.90;;;;;;5015415;28;20029;-64
2022/11/15 03:13:20;;;;;;;11.63;5.13;;;10.80;99.90;;;;;;5011890;28;20026;-65
2022/11/15 03:16:09;;;;;;;11.88;5.88;;;10.80;99.90;;;;;;5021116;28;20044;-65
2022/11/15 03:18:43;;;;;;;8.35;5.70;;;10.80;99.90;;;;;;5032194;28;20588;-65
2022/11/15 03:21:11;;;;;;;;;;;10.90;99.90;;;;;;5033668;28;20068;-65
2022/11/15 03:23:38;;;;;;;8.57;5.43;;;10.90;99.90;;;;;;5018793;28;19913;-65
2022/11/15 03:26:11;;;;;;;9.77;5.70;;;10.90;99.90;;;;;;5030443;28;20057;-65
2022/11/15 03:28:52;;;;;;;8.35;6.18;;;10.90;99.90;;;;;;5041893;28;20017;-65
2022/11/15 03:34:09;;;;;;;9.32;6.50;;;11.00;99.90;;;;;;5037880;28;20458;-65
2022/11/15 03:36:35;;;;;;;10.95;6.53;;;11.00;99.90;;;;;;5023768;28;20029;-66
2022/11/15 03:39:04;;;;;;;10.60;6.43;;;11.00;99.90;;;;;;5025592;28;20625;-65
2022/11/15 03:41:58;;;;;;;8.68;5.85;;;11.10;99.90;;;;;;5021820;28;20584;-64
2022/11/15 03:44:43;;;;;;;8.57;6.07;;;11.10;99.90;;;;;;5019870;28;20573;-65
2022/11/15 03:47:11;;;;;;;10.95;5.68;;;11.10;99.90;;;;;;5032132;28;20374;-64
2022/11/15 03:49:42;;;;;;;9.20;5.78;;;11.20;99.90;;;;;;5017397;28;20034;-65
2022/11/15 03:52:10;;;;;;;8.52;5.78;;;11.20;99.90;;;;;;5017883;28;20025;-65
2022/11/15 03:54:36;;;;;;;7.90;5.82;;;11.30;99.90;;;;;;5042522;28;20063;-64
2022/11/15 03:57:01;;;;;;;8.18;5.50;;;11.30;99.90;;;;;;5027128;28;20025;-64
2022/11/15 03:59:27;;;;;;;8.95;5.22;;;11.30;99.90;;;;;;5030570;28;20148;-65
2022/11/15 04:01:52;;;;;;;8.98;5.15;;;11.30;99.90;;;;;;5030466;28;20116;-65
2022/11/15 04:04:18;;;;;;;25.40;6.20;;;11.30;99.90;;;;;;5016828;28;20026;-65
2022/11/15 04:06:43;;;;;;;10.00;5.50;;;11.40;99.90;;;;;;5016774;28;20025;-65
2022/11/15 04:09:09;;;;;;;9.63;6.05;;;11.40;99.90;;;;;;5026498;28;20021;-65
2022/11/15 04:11:34;;;;;;;14.10;5.50;;;11.40;99.90;;;;;;5040688;28;20021;-65
2022/11/15 04:14:00;;;;;;;9.07;5.45;;;11.40;99.90;;;;;;5024653;28;20029;-64
2022/11/15 04:16:25;;;;;;;12.82;6.32;;;11.40;99.90;;;;;;5027877;28;20025;-65
2022/11/15 04:24:11;;;;;;;9.15;5.50;;;11.40;99.90;;;;;;5034565;28;20061;-64
2022/11/15 04:24:21;;;;;;;7.72;5.15;;;11.40;99.90;;;;;;5026286;28;20072;-65
2022/11/15 04:26:46;;;;;;;8.35;5.50;;;11.40;99.90;;;;;;5028607;28;20045;-65
2022/11/15 04:31:56;;;;;;;9.63;5.05;;;11.50;99.90;;;;;;5029508;28;20044;-69
2022/11/15 04:34:21;;;;;;;7.60;4.88;;;11.50;99.90;;;;;;5033319;28;20025;-68
2022/11/15 04:39:31;;;;;;;7.15;5.13;;;11.40;99.90;;;;;;5026916;28;20059;-68
2022/11/15 04:41:57;;;;;;;9.85;5.80;;;11.40;99.90;;;;;;5036781;28;20506;-68
2022/11/15 04:44:22;;;;;;;10.38;5.68;;;11.30;99.90;;;;;;5040445;28;20450;-68
2022/11/15 04:46:48;;;;;;;11.63;5.35;;;11.30;99.90;;;;;;5033403;28;20099;-67
2022/11/15 04:49:14;;;;;;;6.93;5.10;;;11.20;99.90;;;;;;5038921;28;20028;-68
2022/11/15 04:51:39;;;;;;;7.68;4.53;;;11.20;99.90;;;;;;5027601;28;20037;-68
2022/11/15 04:54:05;;;;;;;7.82;5.05;;;11.10;99.90;;;;;;5040105;28;20028;-68
2022/11/15 04:56:30;;;;;;;9.00;4.93;;;11.10;99.90;;;;;;5031152;28;20030;-68
2022/11/15 04:58:56;;;;;;;9.05;5.68;;;11.00;99.90;;;;;;5039459;28;20025;-67
2022/11/15 05:01:21;;;;;;;8.43;5.32;;;11.00;99.90;;;;;;5038094;28;20025;-68
2022/11/15 05:06:31;;;;;;;8.68;5.72;;;10.80;99.90;;;;;;5029124;28;20486;-68
2022/11/15 05:08:57;;;;;;;10.93;5.32;;;10.70;99.90;;;;;;5031984;28;20025;-67
2022/11/15 05:11:23;;;;;;;10.40;5.15;;;10.80;99.90;;;;;;5034047;28;20077;-68
2022/11/15 05:13:48;;;;;;;7.72;5.20;;;10.80;99.90;;;;;;5037932;28;20029;-68
2022/11/15 05:16:14;;;;;;;7.82;4.90;;;10.80;99.90;;;;;;5033037;28;20498;-68
2022/11/15 05:18:40;;;;;;;6.90;4.25;;;10.80;99.90;;;;;;5039320;28;20025;-68
2022/11/15 05:21:10;;;;;;;6.88;4.90;;;10.80;99.90;;;;;;5032288;28;20033;-68
2022/11/15 05:23:35;;;;;;;6.45;4.80;;;10.80;99.90;;;;;;5041201;28;20807;-67
2022/11/15 05:26:06;;;;;;;11.43;5.05;;;10.90;99.90;;;;;;5031612;28;20026;-69
2022/11/15 05:28:32;;;;;;;7.95;4.53;;;10.90;99.90;;;;;;5032209;28;20021;-68
2022/11/15 05:31:01;;;;;;;7.80;5.28;;;10.80;99.90;;;;;;5035939;28;20372;-68
2022/11/15 05:33:27;;;;;;;7.97;5.28;;;10.90;99.90;;;;;;5040025;28;20082;-69
2022/11/15 05:36:22;;;;;;;5.60;3.78;;;10.90;99.90;;;;;;5035762;28;20491;-68
2022/11/15 05:38:50;;;;;;;7.47;4.10;;;10.90;99.90;;;;;;5020169;28;20037;-68
2022/11/15 05:41:18;;;;;;;6.68;4.07;;;11.00;99.90;;;;;;5031373;28;20100;-67
2022/11/15 05:43:44;;;;;;;6.80;4.13;;;11.00;99.90;;;;;;5031981;28;20426;-68
2022/11/15 05:46:10;;;;;;;6.95;4.35;;;10.90;99.90;;;;;;5033243;28;20071;-67
2022/11/15 05:48:38;;;;;;;7.05;4.82;;;10.90;99.90;;;;;;5030595;28;20029;-68
2022/11/15 05:51:06;;;;;;;5.80;3.55;;;10.80;99.90;;;;;;5047040;28;20104;-68
2022/11/15 05:53:32;;;;;;;7.45;4.07;;;10.70;99.90;;;;;;5030383;28;20034;-67
2022/11/15 05:55:57;;;;;;;7.28;3.88;;;10.60;99.90;;;;;;5035357;28;20037;-67
2022/11/15 05:58:23;;;;;;;7.57;4.10;;;10.50;99.90;;;;;;5027972;28;20038;-67
2022/11/15 06:00:48;;;;;;;6.15;4.25;;;10.40;99.90;;;;;;5030383;28;20033;-68
2022/11/15 06:03:14;;;;;;;10.98;4.15;;;10.30;99.90;;;;;;5034830;28;20029;-67
2022/11/15 06:05:40;;;;;;;5.93;4.10;;;10.30;99.90;;;;;;5039747;28;20115;-67
2022/11/15 06:08:05;;;;;;;5.28;3.60;;;10.20;99.90;;;;;;5037675;28;20040;-68
2022/11/15 06:10:32;;;;;;;6.47;4.25;;;10.10;99.90;;;;;;5029320;28;20033;-67
2022/11/15 06:12:59;;;;;;;8.18;4.90;;;10.00;99.90;;;;;;5043469;28;20032;-68
2022/11/15 06:15:25;;;;;;;9.80;4.55;;;9.90;99.90;;;;;;5040301;28;20028;-67
2022/11/15 06:17:51;;;;;;;5.40;3.78;;;9.90;99.90;;;;;;5035829;28;20029;-68
2022/11/15 06:20:17;;;;;;;8.35;4.60;;;9.90;99.90;;;;;;5033820;28;20515;-68
2022/11/15 06:22:43;;;;;;;7.20;4.45;;;9.80;99.90;;;;;;5038660;28;20508;-67
2022/11/15 06:25:08;;;;;;;14.35;5.93;;;9.70;99.90;;;;;;5034052;28;20586;-68
2022/11/15 06:27:34;;;;;;;12.45;6.35;;;9.60;99.90;;;;;;5031319;28;20100;-68
2022/11/15 06:29:59;;;;;;;7.07;4.55;;;9.60;99.90;;;;;;5030798;28;20022;-67
2022/11/15 06:32:25;;;;;;;7.63;4.43;;;9.50;99.90;;;;;;5037372;28;20060;-68
2022/11/15 06:34:51;;;;;;;8.60;4.82;;;9.30;99.90;;;;;;5045927;28;20051;-68
2022/11/15 06:37:16;;;;;;;8.50;4.25;;;9.30;99.90;;;;;;5030661;28;20502;-69
2022/11/15 06:39:42;;;;;;;10.93;6.07;;;9.30;99.90;;;;;;5024160;28;20617;-68
2022/11/15 06:42:10;;;;;;;12.32;5.70;;;9.30;99.90;;;;;;5025224;28;20030;-68
2022/11/15 06:44:36;;;;;;;12.02;5.28;;;9.30;99.90;;;;;;5039263;28;20021;-66
2022/11/15 06:47:01;;;;;;;12.10;5.70;;;9.30;99.90;;;;;;5047529;28;20025;-68
2022/11/15 06:49:27;;;;;;;12.45;5.80;;;9.30;99.90;;;;;;5043059;28;20029;-68
2022/11/15 06:51:53;;;;;;;6.30;3.97;;;9.30;99.90;;;;;;5043661;28;20088;-68
2022/11/15 06:54:18;;;;;;;10.05;4.97;;;9.30;99.90;;;;;;5046283;28;20029;-68
2022/11/15 06:56:44;;;;;;;9.88;4.32;;;9.30;99.90;;;;;;5037891;28;20036;-69
2022/11/15 06:59:09;;;;;;;7.80;3.72;;;9.30;99.90;;;;;;5042029;28;20172;-67
2022/11/15 07:01:35;;;;;;;6.50;3.45;;;9.30;99.90;;;;;;5033163;28;20048;-68
2022/11/15 07:04:00;;;;;;;5.60;2.88;;;9.30;99.90;;;;;;5033044;28;20029;-67
2022/11/15 07:06:26;;;;;;;5.88;3.17;;;9.40;99.90;;;;;;5033332;28;20499;-68
2022/11/15 07:08:51;;;;;;;9.85;4.03;;;9.40;99.90;;;;;;5030545;28;20071;-67
2022/11/15 07:11:17;;;;;;;6.25;2.90;;;9.40;99.90;;;;;;5031249;28;20104;-67
2022/11/15 07:13:42;;;;;;;6.80;3.90;;;9.40;99.90;;;;;;5031346;28;20017;-68
2022/11/15 07:16:10;;;;;;;4.57;2.75;;;9.50;99.90;;;;;;5042383;28;20029;-67
2022/11/15 07:18:37;;;;;;;3.60;2.13;;;9.50;99.90;;;;;;5027024;28;20049;-68
2022/11/15 07:21:08;;;;;;;4.40;2.70;;;9.60;99.90;;;;;;5028270;28;20104;-68
2022/11/15 07:23:37;;;;;;;5.38;2.72;;;9.60;99.90;;;;;;5030495;28;20014;-68
2022/11/15 07:26:02;;;;;;;4.10;2.75;;;9.60;99.90;;;;;;5027087;28;20067;-68
2022/11/15 07:28:28;;;;;;;5.68;2.65;;;9.60;99.90;;;;;;5033738;28;20025;-68
2022/11/15 07:30:54;;;;;;;7.75;3.33;;;9.60;99.90;;;;;;5028701;28;20100;-67
2022/11/15 07:33:20;;;;;;;4.68;3.30;;;9.60;99.90;;;;;;5034763;28;20028;-67
2022/11/15 07:35:48;;;;;;;4.80;2.50;;;9.70;99.90;;;;;;5029323;28;20029;-66
2022/11/15 07:38:20;;;;;;;4.30;2.67;;;9.70;99.90;;;;;;5030500;28;20140;-68
2022/11/15 07:40:47;;;;;;;11.07;2.28;;;9.70;99.90;;;;;;5037237;28;20037;-68
2022/11/15 07:43:12;;;;;;;5.18;1.80;;;9.70;99.90;;;;;;5036097;28;20036;-67
2022/11/15 07:45:45;;;;;;;7.72;1.80;;;9.80;99.90;;;;;;5032959;28;20025;-67
2022/11/15 07:48:11;;;;;;;4.32;2.30;;;9.80;99.90;;;;;;5025126;28;20037;-67
2022/11/15 07:50:36;;;;;;;7.75;2.40;;;9.80;99.90;;;;;;5030422;28;20024;-68
2022/11/15 07:53:02;;;;;;;4.63;2.10;;;9.90;99.90;;;;;;5036076;28;20032;-67
2022/11/15 07:55:29;;;;;;;5.95;2.03;;;9.90;99.90;;;;;;5032787;28;20043;-69
2022/11/15 07:58:03;;;;;;;4.80;1.73;;;9.90;99.90;;;;;;5049502;28;20021;-68
2022/11/15 08:00:29;;;;;;;5.15;1.42;;;10.00;99.90;;;;;;5010819;28;20181;-68
2022/11/15 08:03:03;;;;;;;2.13;1.50;;;10.10;99.90;;;;;;5032144;28;20040;-68
2022/11/15 08:05:29;;;;;;;4.13;1.88;;;10.20;99.90;;;;;;5044780;28;20036;-68
2022/11/15 08:07:57;;;;;;;3.70;1.55;;;10.30;99.90;;;;;;5028591;28;20033;-69
2022/11/15 08:10:23;;;;;;;2.55;2.15;;;10.40;99.90;;;;;;5034297;28;20022;-68
2022/11/15 08:13:07;;;;;;;5.20;1.95;;;10.50;99.90;;;;;;5034384;28;20044;-68
2022/11/15 08:15:34;;;;;;;2.47;1.90;;;10.60;99.90;;;;;;5043459;28;20033;-68
2022/11/15 08:18:02;;;;;;;3.17;2.00;;;10.70;99.90;;;;;;5042740;28;20041;-68
2022/11/15 08:20:29;;;;;;;2.63;1.85;;;10.80;99.90;;;;;;5020195;28;20033;-67
2022/11/15 08:22:59;;;;;;;3.38;1.70;;;10.90;99.90;;;;;;5039514;28;20057;-68
2022/11/15 08:25:27;;;;;;;3.33;2.25;;;11.00;99.90;;;;;;5034918;28;20056;-68
2022/11/15 08:27:54;;;;;;;4.70;2.00;;;11.00;99.90;;;;;;5040757;28;20030;-68
2022/11/15 08:30:20;;;;;;;3.97;1.95;;;11.10;99.90;;;;;;5031718;28;20088;-68
2022/11/15 08:32:46;;;;;;;2.30;1.80;;;11.10;99.90;;;;;;5029434;28;20048;-68
2022/11/15 08:35:11;;;;;;;3.25;1.42;;;11.10;99.90;;;;;;5038087;28;20034;-68
2022/11/15 08:37:37;;;;;;;1.50;1.30;;;11.20;99.90;;;;;;5038974;28;20028;-68
2022/11/15 08:40:03;;;;;;;1.73;1.42;;;11.20;99.90;;;;;;5036968;28;20043;-68
2022/11/15 08:42:29;;;;;;;4.10;1.85;;;11.20;99.90;;;;;;5041219;28;20494;-67
2022/11/15 08:44:54;;;;;;;2.80;1.50;;;11.30;99.90;;;;;;5029144;28;20100;-68
2022/11/15 08:47:20;;;;;;;4.90;1.50;;;11.30;99.90;;;;;;5037062;28;20030;-68
2022/11/15 08:49:46;;;;;;;4.53;2.10;;;11.40;99.90;;;;;;5045615;28;20100;-68
2022/11/15 08:52:11;;;;;;;3.47;2.92;;;11.40;99.90;;;;;;5033128;28;20033;-67
2022/11/15 08:54:37;;;;;;;1.70;1.50;;;11.50;99.90;;;;;;5029196;28;20083;-68
2022/11/15 08:57:02;;;;;;;2.53;1.52;;;11.50;99.90;;;;;;5033442;28;20028;-68
2022/11/15 08:59:28;;;;;;;2.60;1.60;;;11.60;99.90;;;;;;5036626;28;20025;-68
2022/11/15 09:01:54;;;;;;;3.42;2.55;;;11.70;99.90;;;;;;5015892;28;20087;-68
2022/11/15 09:04:19;;;;;;;4.32;3.15;;;11.70;99.90;;;;;;5031016;28;20036;-67
2022/11/15 09:06:45;;;;;;;5.15;1.90;;;11.80;99.90;;;;;;5029378;28;20025;-67
2022/11/15 09:09:10;;;;;;;3.90;2.35;;;11.90;99.90;;;;;;5026348;28;20037;-68
2022/11/15 09:11:36;;;;;;;5.55;3.50;;;11.90;99.90;;;;;;5040242;28;20114;-68
2022/11/15 09:14:02;;;;;;;2.15;1.92;;;11.90;99.90;;;;;;5021869;28;20029;-68
2022/11/15 09:16:27;;;;;;;4.38;1.50;;;12.10;99.90;;;;;;5030290;28;20083;-68
2022/11/15 09:18:54;;;;;;;3.22;1.65;;;12.20;99.90;;;;;;5033890;28;20053;-67
2022/11/15 09:21:20;;;;;;;1.92;1.55;;;12.20;99.90;;;;;;5036084;28;20040;-68
2022/11/15 09:23:45;;;;;;;2.92;1.52;;;12.30;99.90;;;;;;5030804;28;20041;-68
2022/11/15 09:26:11;;;;;;;4.88;1.40;;;12.40;99.90;;;;;;5033741;28;20025;-68
2022/11/15 09:28:37;;;;;;;3.60;1.73;;;12.60;99.90;;;;;;5033183;28;20167;-68
2022/11/15 09:31:05;;;;;;;1.80;1.20;;;12.80;99.90;;;;;;5029782;28;20441;-68
2022/11/15 09:33:32;;;;;;;1.70;1.52;;;12.90;99.90;;;;;;5040328;28;20132;-67
2022/11/15 09:36:02;;;;;;;3.80;1.00;;;13.00;99.90;;;;;;5010385;28;20109;-68
2022/11/15 09:38:28;;;;;;;2.70;1.23;;;13.10;99.90;;;;;;5035873;28;20124;-69
2022/11/15 09:41:16;;;;;;;2.03;1.45;;;13.20;99.90;;;;;;5035889;28;20104;-69
2022/11/15 09:44:33;;;;;;;1.27;1.10;;;13.30;99.90;;;;;;5021107;28;20398;-68
2022/11/15 09:47:26;;;;;;;1.25;1.15;;;13.20;99.90;;;;;;5003262;28;20029;-68
2022/11/15 09:49:58;;;;;;;1.55;1.45;;;13.20;99.90;;;;;;5024785;28;20021;-68
2022/11/15 09:52:24;;;;;;;1.67;1.02;;;13.20;99.90;;;;;;5030477;28;20113;-67
2022/11/15 09:54:51;;;;;;;4.75;1.17;;;13.20;99.90;;;;;;5032402;28;20455;-67
2022/11/15 09:57:37;;;;;;;3.17;1.30;;;13.30;99.90;;;;;;5035439;28;20124;-68
2022/11/15 10:00:09;;;;;;;2.25;1.02;;;13.40;99.90;;;;;;5022769;28;20041;-68
2022/11/15 10:02:47;;;;;;;1.67;1.25;;;13.30;99.90;;;;;;5032374;28;20096;-68
2022/11/15 10:05:17;;;;;;;3.47;1.00;;;13.30;99.90;;;;;;5024862;28;20040;-68
2022/11/15 10:07:58;;;;;;;1.23;1.08;;;13.10;99.90;;;;;;5020463;28;20116;-67
2022/11/15 10:10:39;;;;;;;0.82;0.68;;;13.10;99.90;;;;;;5019470;28;20037;-68
2022/11/15 10:13:07;;;;;;;2.92;0.80;;;13.00;99.90;;;;;;5018220;28;20033;-68
2022/11/15 10:15:34;;;;;;;9.80;1.73;;;13.10;99.90;;;;;;5028583;28;20033;-68
2022/11/15 10:18:08;;;;;;;1.67;1.08;;;13.00;99.90;;;;;;5034453;28;20025;-68
2022/11/15 10:20:52;;;;;;;2.67;1.67;;;13.00;99.90;;;;;;5027497;28;20092;-69
2022/11/15 10:23:21;;;;;;;2.10;1.00;;;13.10;99.90;;;;;;5030600;28;20425;-68
2022/11/15 10:25:47;;;;;;;2.63;1.58;;;13.10;99.90;;;;;;5037237;28;20024;-67
2022/11/15 10:28:21;;;;;;;5.63;1.08;;;13.10;99.90;;;;;;5024136;28;20030;-68
2022/11/15 10:30:53;;;;;;;1.35;0.88;;;13.30;99.90;;;;;;5032128;28;20539;-67
2022/11/15 10:33:38;;;;;;;2.72;1.20;;;13.30;99.90;;;;;;5036789;28;20028;-68
2022/11/15 10:36:12;;;;;;;3.78;1.75;;;13.30;99.90;;;;;;5035297;28;20029;-68
2022/11/15 10:38:53;;;;;;;2.42;1.25;;;13.30;99.90;;;;;;5029546;28;20026;-68
2022/11/15 10:41:31;;;;;;;1.58;0.90;;;13.40;99.90;;;;;;5030897;28;20040;-68
2022/11/15 10:44:31;;;;;;;2.97;1.45;;;13.40;99.90;;;;;;5034221;28;20024;-68
2022/11/15 10:46:56;;;;;;;4.18;1.55;;;13.40;99.90;;;;;;5031168;28;20025;-68
2022/11/15 10:49:30;;;;;;;5.25;1.88;;;13.40;99.90;;;;;;5040456;28;20031;-68
2022/11/15 10:51:57;;;;;;;2.28;1.00;;;13.50;99.90;;;;;;5036697;28;20528;-68
2022/11/15 10:54:22;;;;;;;2.42;1.00;;;13.50;99.90;;;;;;5040842;28;20387;-67
2022/11/15 10:56:51;;;;;;;2.03;0.95;;;13.50;99.90;;;;;;5024340;28;20100;-68
2022/11/15 10:59:29;;;;;;;1.55;1.10;;;13.50;99.90;;;;;;5026658;28;20026;-68
2022/11/15 11:01:55;;;;;;;2.15;1.00;;;13.50;99.90;;;;;;5017587;28;20148;-68
2022/11/15 11:04:21;;;;;;;4.38;1.20;;;13.50;99.90;;;;;;5040394;28;20120;-68
2022/11/15 11:06:55;;;;;;;2.83;0.90;;;13.50;99.90;;;;;;5019623;28;20112;-68
2022/11/15 11:09:38;;;;;;;2.83;1.17;;;13.50;99.90;;;;;;5018205;28;20033;-68
2022/11/15 11:12:09;;;;;;;3.22;0.88;;;13.50;99.90;;;;;;5025679;28;20083;-68
2022/11/15 11:14:37;;;;;;;3.47;1.40;;;13.40;99.90;;;;;;5028595;28;20113;-68
2022/11/15 11:17:22;;;;;;;3.45;2.20;;;13.40;99.90;;;;;;5022745;28;20493;-68
2022/11/15 11:20:03;;;;;;;4.85;1.33;;;13.30;99.90;;;;;;5028760;28;20025;-67
2022/11/15 11:23:12;;;;;;;2.58;1.73;;;13.30;99.90;;;;;;5029659;28;20662;-68
2022/11/15 11:25:53;;;;;;;1.58;0.77;;;13.30;99.90;;;;;;5022087;28;20108;-68
2022/11/15 11:28:26;;;;;;;5.13;1.13;;;13.40;99.90;;;;;;5035113;28;20030;-68
2022/11/15 11:31:00;;;;;;;3.83;0.75;;;13.40;99.90;;;;;;5037323;28;20033;-68
2022/11/15 11:33:41;;;;;;;1.05;0.80;;;13.40;99.90;;;;;;5041580;28;20033;-68
2022/11/15 11:36:16;;;;;;;1.95;0.82;;;13.30;99.90;;;;;;5039017;28;20107;-68
2022/11/15 11:39:09;;;;;;;1.83;0.90;;;13.30;99.90;;;;;;5033983;28;20207;-68
2022/11/15 11:41:49;;;;;;;1.37;1.07;;;13.30;99.90;;;;;;5034760;28;20032;-68
2022/11/15 11:44:30;;;;;;;3.42;0.93;;;13.30;99.90;;;;;;5031902;28;20379;-67
2022/11/15 11:47:01;;;;;;;3.67;1.17;;;13.40;99.90;;;;;;5035450;28;20028;-67
2022/11/15 11:49:51;;;;;;;1.40;0.80;;;13.30;99.90;;;;;;5037806;28;20064;-68
2022/11/15 11:52:39;;;;;;;0.65;0.65;;;13.30;99.90;;;;;;5024331;28;20041;-67
2022/11/15 11:55:22;;;;;;;2.03;0.77;;;13.20;99.90;;;;;;5025774;28;20029;-68
2022/11/15 11:57:53;;;;;;;1.58;0.85;;;13.10;99.90;;;;;;5040477;28;20410;-68
2022/11/15 12:00:21;;;;;;;2.40;0.88;;;13.00;99.90;;;;;;5041454;28;20028;-68
2022/11/15 12:03:14;;;;;;;1.17;0.88;;;13.00;99.90;;;;;;5027802;28;20044;-70
2022/11/15 12:06:02;;;;;;;3.10;1.15;;;13.00;99.90;;;;;;5029298;28;20057;-68
2022/11/15 12:08:50;;;;;;;1.85;1.35;;;13.10;99.90;;;;;;5032279;28;20026;-69
2022/11/15 12:11:46;;;;;;;3.75;1.92;;;13.10;99.90;;;;;;5023779;28;20107;-68
2022/11/15 12:14:31;;;;;;;6.25;0.95;;;13.10;99.90;;;;;;5045470;28;20148;-67
2022/11/15 12:16:58;;;;;;;1.15;1.05;;;13.20;99.90;;;;;;5038697;28;20036;-68
2022/11/15 12:19:24;;;;;;;1.65;0.70;;;13.10;99.90;;;;;;5012220;28;20037;-68
2022/11/15 12:22:06;;;;;;;2.22;0.98;;;13.20;99.90;;;;;;5032586;28;20487;-68
2022/11/15 12:24:58;;;;;;;3.35;1.15;;;13.10;99.90;;;;;;5045380;28;20025;-68
2022/11/15 12:27:38;;;;;;;3.78;1.02;;;13.10;99.90;;;;;;5028210;28;20065;-68
2022/11/15 12:30:16;;;;;;;1.35;1.00;;;13.00;99.90;;;;;;5029227;28;20479;-68
2022/11/15 12:33:01;;;;;;;2.80;1.00;;;13.10;99.90;;;;;;5034968;28;20033;-68
2022/11/15 12:35:32;;;;;;;1.17;0.85;;;13.10;99.90;;;;;;5031514;28;20132;-68
2022/11/15 12:37:58;;;;;;;1.13;0.95;;;13.10;99.90;;;;;;5032534;28;20029;-68
2022/11/15 12:40:30;;;;;;;2.33;1.10;;;13.20;99.90;;;;;;5037139;28;20037;-68
2022/11/15 12:43:01;;;;;;;3.88;1.08;;;13.40;99.90;;;;;;5020982;28;20513;-68
2022/11/15 12:45:38;;;;;;;8.63;1.20;;;13.50;99.90;;;;;;5034503;28;20022;-68
2022/11/15 12:48:16;;;;;;;1.42;1.08;;;13.70;99.90;;;;;;5024113;28;20030;-68
2022/11/15 12:50:53;;;;;;;1.30;0.80;;;13.80;99.90;;;;;;5024649;28;20403;-67
2022/11/15 12:53:25;;;;;;;3.17;1.02;;;13.90;99.90;;;;;;5027263;28;20476;-68
2022/11/15 12:56:16;;;;;;;4.05;1.50;;;14.00;99.90;;;;;;5034558;28;20037;-69
2022/11/15 12:58:48;;;;;;;8.02;1.73;;;14.10;99.90;;;;;;5008822;28;20380;-68
2022/11/15 13:04:19;;;;;;;4.18;1.65;;;14.10;99.90;;;;;;5029835;28;20391;-67
2022/11/15 13:06:48;;;;;;;4.05;1.75;;;14.10;99.90;;;;;;5031306;28;20052;-68
2022/11/15 13:09:35;;;;;;;4.15;1.50;;;14.10;99.90;;;;;;5028470;28;20033;-68
2022/11/15 13:12:09;;;;;;;5.88;1.70;;;14.00;99.90;;;;;;5032669;28;20017;-69
2022/11/15 13:14:39;;;;;;;2.45;1.40;;;14.00;99.90;;;;;;5027556;28;20490;-68
2022/11/15 13:17:50;;;;;;;2.63;1.30;;;14.00;99.90;;;;;;5028580;28;20021;-68
2022/11/15 13:20:15;;;;;;;3.45;1.38;;;14.00;99.90;;;;;;5021584;28;20036;-68
2022/11/15 13:23:00;;;;;;;5.35;1.40;;;14.00;99.90;;;;;;5031807;28;20025;-68
2022/11/15 13:25:48;;;;;;;2.25;1.55;;;13.90;99.90;;;;;;5026981;28;20033;-68